Pittsburgh, Pennsylvania
Traffic Map
Current Weather Conditions
Pittsburgh, Pennsylvania
Broken Clouds
Broken Clouds
72°
Feels Like: 72°
Wind Chill: 72° Ceiling: 7500
Heat Index: 72° Visibility: 10mi
Dew Point: 49° Wind: 14mph
Humidity: 44% Direction: 250° (WSW)
Pressure: 30.17in Gusts: 0mph
Raw Report DataKAGC 251753Z 25012KT 10SM FEW046 SCT060 BKN075 22/09 A3017 RMK AO2 SLP215 T02220094 10222 20167 53001
Traffic Incident Summary
Active as of:
Severity:
Category:
InformationThere was an issue retrieving the traffic information for this location. Please try a different location or try again shortly.
Advertisements
Track Severe Weather on mobile